AirNav   Air Wisconsin Up To $57,000 Bonus
 
 1123 users online  

Y55 Crandon/Steve Conway Municipal Airport
Crandon, Wisconsin, USA

GOING TO CRANDON?


FAA INFORMATION EFFECTIVE 25 FEBRUARY 2021

Location

FAA Identifier: Y55
Lat/Long: 45-31-21.5340N 088-55-42.3743W
45-31.358900N 088-55.706238W
45.5226483,-88.9284373
(estimated)
Elevation: 1650 ft. / 502.9 m (surveyed)
Variation: 03W (2015)
From city: 3 miles SW of CRANDON, WI
Time zone: UTC -6 (UTC -5 during Daylight Saving Time)
Zip code: 54520

Airport Operations

Airport use: Open to the public
Activation date: 09/1958
Control tower: no
ARTCC: MINNEAPOLIS CENTER
FSS: GREEN BAY FLIGHT SERVICE STATION
NOTAMs facility: GRB (NOTAM-D service available)
Attendance: UNATNDD
Wind indicator: lighted
Segmented circle: no
Lights: MIRL RY 12/30 PRESET ON LOW INTST; TO INCR INTST & ACTVT - CTAF.
Beacon: white-green (lighted land airport)
Operates sunset to sunrise.

Airport Communications

CTAF: 122.9
  • APCH/DEP SVC PRVDD BY MINNEAPOLIS ARTCC ON FREQS 133.65/281.5 (RHINELANDER RCAG).

Nearby radio navigation aids

VOR radial/distance  VOR name  Freq  Var
RHIr105/23.2RHINELANDER VOR/DME109.2002E
IMTr245/38.5IRON MOUNTAIN VOR/DME111.2002W

Airport Services

Parking: tiedowns
Airframe service: NONE
Powerplant service: NONE
Bottled oxygen: NONE
Bulk oxygen: NONE

Runway Information

Runway 12/30

Dimensions: 3550 x 75 ft. / 1082 x 23 m
Surface: asphalt, in good condition
Weight bearing capacity: 
Single wheel: 12.0
Runway edge lights: medium intensity
RUNWAY 12  RUNWAY 30
Latitude: 45-31.542878N45-31.319537N
Longitude: 088-56.245392W088-55.477553W
Elevation: 1649.8 ft.1627.5 ft.
Traffic pattern: leftleft
Markings: nonprecision, in fair conditionnonprecision, in fair condition
Runway end identifier lights: nono
Touchdown point: yes, no lightsyes, no lights

Runway 1/19

Dimensions: 2742 x 100 ft. / 836 x 30 m
Surface: turf, in fair condition
Runway edge markings: RWY 01/19 MKD WITH YELLOW CONES.
RUNWAY 1  RUNWAY 19
Latitude: 45-31.041122N45-31.489450N
Longitude: 088-55.541145W088-55.469357W
Elevation: 1614.5 ft.1626.8 ft.
Traffic pattern: leftleft
Runway end identifier lights: nono
Touchdown point: yes, no lightsyes, no lights

Airport Ownership and Management from official FAA records

Ownership: Publicly-owned
Owner: CITY OF CRANDON
601 W. WASHINGTON ST, PO BOX 335
CRANDON, WI 54520
Phone 715-478-2400
Manager: NORMAN KNOLL
8765 MARY ST
ARGONNE, WI 54511
Phone 715-649-3225

Airport Operational Statistics

Aircraft based on the field: 9
Single engine airplanes: 9
    
Aircraft operations: avg 84/week *
45% transient general aviation
45% local general aviation
9% air taxi
* for 12-month period ending 20 August 2020

Additional Remarks

OCNL DEER ON & INVOF ARPT.
FOR CD CTC MINNEAPOLIS ARTCC AT 651-463-5588.

Instrument Procedures

NOTE: All procedures below are presented as PDF files. If you need a reader for these files, you should download the free Adobe Reader.

NOT FOR NAVIGATION. Please procure official charts for flight.
FAA instrument procedures published for use from 25 February 2021 at 0901Z to 25 March 2021 at 0900Z.

 
IAPs - Instrument Approach Procedures
RNAV (GPS) RWY 12   download (233KB)
RNAV (GPS) RWY 30   download (242KB)
NOTE: Special Take-Off Minimums/Departure Procedures apply   download (293KB)

Other nearby airports with instrument procedures:

KAIG - Langlade County Airport (23 nm S)
KRHI - Rhinelander-Oneida County Airport (24 nm W)
KEGV - Eagle River Union Airport (28 nm NW)
KTKV - Tomahawk Regional Airport (37 nm W)
KRRL - Merrill Municipal Airport (38 nm SW)
 
Loc | Ops | Rwys | IFR | FBO | Links
Com | Nav | Svcs | Stats | Notes
Area around Y55 (Crandon/Steve Conway Municipal Airport)
 
Road maps at: MapQuest Bing Google
 
Aerial photo
WARNING: Photo may not be current or correct
Aerial photo of Y55 (Crandon/Steve Conway Municipal Airport)
Photo taken 23-Jul-2006
from a Mooney M20F, at an altitude of 1,500-2,000 AGL

Do you have a better or more recent aerial photo of Crandon/Steve Conway Municipal Airport that you would like to share? If so, please send us your photo.

 
Sectional chart

 
Airport distance calculator
Flying to Crandon/Steve Conway Municipal Airport? Find the distance to fly.

From to Y55

Sunrise and sunset
Times for 08-Mar-2021
 Local
(UTC-6)
 Zulu
(UTC)
Morning civil twilight05:5311:53
Sunrise06:2212:22
Sunset17:5123:51
Evening civil twilight18:2000:20

Current date and time
Zulu (UTC)  08-Mar-2021 14:01:48
Local (UTC-6)  08-Mar-2021 08:01:48
 
METAR
KRHI 
24nm W 
081353Z AUTO 28008KT 7SM BKN017 01/M01 A3012 RMK AO2 SLP216 T00111006
KEGV 
28nm NW 
081335Z AUTO 29005KT 7SM CLR 01/01 A3010 RMK AO2 T00050005
KAIG 
32nm S 
081335Z AUTO 28003KT 5SM BR CLR M01/M01 A3012 RMK AO2 T10141014
KTKV 
37nm W 
081335Z AUTO 28004KT 7SM M03/M03 A3013 RMK AO2 T10261029 PWINO
KIMT 
38nm NE 
081354Z AUTO 00000KT 7SM CLR 01/M02 A3008 RMK AO2 SLP200 T00061022
KRRL 
38nm SW 
081355Z AUTO 26003KT 4SM BR CLR M01/M02 A3014 RMK AO2 T10131018 TSNO
KLNL 
40nm N 
081355Z AUTO 29003KT 10SM BKN013 02/01 A3011 RMK AO2 T00210006
KARV 
41nm NW 
081355Z AUTO 29004KT 10SM OVC013 03/M03 A3012 RMK AO2 T00251027
KAUW 
46nm SW 
081354Z AUTO 30004KT 6SM HZ CLR 03/00 A3013 RMK AO2 SLP219 T00280000
KEZS 
47nm S 
715-526-2967
081355Z AUTO 25003KT 10SM CLR 05/02 A3014 RMK AO2 T00500019
TAF
KRHI 
24nm W 
081135Z 0812/0912 26005KT P6SM SCT150 TEMPO 0812/0814 5SM BR FM081800 28004KT P6SM SCT250 FM090500 VRB03KT 4SM BR SCT100 FM090700 14002KT 3SM BR BKN100 FM090900 14004KT 5SM BR BKN080
NOTAMs
Click for the latest NOTAMs
NOTAMs are issued by the DoD/FAA and will open in a separate window not controlled by AirNav.

 

 
 

Would you like to see your business listed on this page?

 If your business provides an interesting product or service to pilots, flight crews, aircraft, or users of the Crandon/Steve Conway Municipal Airport, you should consider listing it here.  To start the listing process, click on the button below
 
Add a business
 

Other Pages about Crandon/Steve Conway Municipal Airport

Page from the Wisconsin airport directory (PDF)
 
Update a link
 
Copyright © AirNav, LLC. All rights reserved. Privacy Policy  Contact